Oban, United Kingdom

4:05 AM BST on August 23, 2014 (GMT +0100)
Oban UK | Change Station
CLOSE
Current Station
Personal Weather Station
Location: Oban, ARGYLL AND BUTE
Elevation: 36 ft
Nearby Weather Stations

Elev 36 ft 56.41 °N, 5.46 °W | Updated 0 second ago

Mostly Cloudy
Mostly Cloudy
46.8 °F
Feels Like 47 °F
N
0.0
Wind Variable Wind from East
Gusts 0.8 mph

Today
High -- | Low -- °F
--% Chance of Precip.
Yesterday
High -- | Low -- °F
Precip. -- in
6:06 AM 8:40 PM
Waning Crescent, 5% visible
Pressure 29.95 in
Visibility 6.2 miles
Clouds Mostly Cloudy 4500 ft
Windchill 47 °F
Dew Point 42 °F
Humidity 83%
Rainfall 0.00 in
Snow Depth Not available.
UV 0 out of 12
Pollen Not available.
Air Quality Not available.
Flu Activity Not available.
METAR EGPU 230250Z AUTO 35012KT 9999 BKN045/// 11/07 Q1014

More Conditions Fewer Conditions

Pressure 29.95 in
Visibility 6.2 miles
Clouds Mostly Cloudy 4500 ft
Windchill 47 °F
Dew Point 42 °F
Humidity 83%
Rainfall 0.00 in
Snow Depth Not available.
UV 0 out of 12
Pollen Not available.
Air Quality Not available.
Flu Activity Not available.
METAR EGPU 230250Z AUTO 35012KT 9999 BKN045/// 11/07 Q1014

More Conditions Fewer Conditions

10-Day Weather Forecast

Almanac

Astronomy

Aug. 23, 2014 Rise Set
Actual Time 6:06 AM BST 8:40 PM BST
Civil Twilight 5:24 AM BST 9:22 PM BST
Nautical Twilight 4:30 AM BST 10:16 PM BST
Astronomical Twilight 3:19 AM BST 11:25 PM BST
Moon 4:01 AM BST 7:21 PM BST
Length of Visible Light 15h 57m
Length of Day
14h 33m
Tomorrow will be 4m 33s shorter.
Waning Crescent, 5% of the Moon is Illuminated
Aug 22
Waning Crescent
Aug 25
New
Sep 2
First Quarter
Sep 8
Full
Sep 15
Last Quarter

Yesterday's Extremes

Country Highs Country Lows

Community

WunderPhotos

Upload Photos

1,746,348 photos uploaded!

WunderBlogs® & News

Nearby

Snow Depth

Not available.

Earthquake Activity

City Distance Mag. Time & Date
No recent earthquake activity has been reported nearby.
Minimum magnitude displayed is 2.5.

Coastal Water Temperatures

Place Temperature
No Stations Reporting

Nearby Weather Stations